sensor_id;sensor_type;location;lat;lon;timestamp;pressure;altitude;pressure_sealevel;temperature;humidity
60611;BME280;46439;51.164;13.572;2022-07-23T00:00:55;100114.10;;;22.07;51.41
60611;BME280;46439;51.164;13.572;2022-07-23T00:03:24;100113.75;;;22.05;51.44
60611;BME280;46439;51.164;13.572;2022-07-23T00:05:53;100117.05;;;22.01;51.52
60611;BME280;46439;51.164;13.572;2022-07-23T00:08:21;100121.86;;;22.00;51.67
60611;BME280;46439;51.164;13.572;2022-07-23T00:10:49;100127.07;;;22.00;51.84
60611;BME280;46439;51.164;13.572;2022-07-23T00:13:18;100125.90;;;21.99;51.79
60611;BME280;46439;51.164;13.572;2022-07-23T00:15:46;100120.70;;;21.97;51.96
60611;BME280;46439;51.164;13.572;2022-07-23T00:18:14;100124.90;;;21.95;52.09
60611;BME280;46439;51.164;13.572;2022-07-23T00:20:43;100132.56;;;21.90;52.13
60611;BME280;46439;51.164;13.572;2022-07-23T00:23:11;100134.39;;;21.86;52.19
60611;BME280;46439;51.164;13.572;2022-07-23T00:25:40;100133.63;;;21.83;52.17
60611;BME280;46439;51.164;13.572;2022-07-23T00:28:08;100128.27;;;21.81;52.38
60611;BME280;46439;51.164;13.572;2022-07-23T00:30:36;100123.54;;;21.78;52.37
60611;BME280;46439;51.164;13.572;2022-07-23T00:33:07;100120.17;;;21.68;52.39
60611;BME280;46439;51.164;13.572;2022-07-23T00:35:37;100121.21;;;21.62;52.36
60611;BME280;46439;51.164;13.572;2022-07-23T00:38:09;100119.73;;;21.58;52.49
60611;BME280;46439;51.164;13.572;2022-07-23T00:40:38;100120.49;;;21.55;52.52
60611;BME280;46439;51.164;13.572;2022-07-23T00:43:07;100122.30;;;21.52;52.71
60611;BME280;46439;51.164;13.572;2022-07-23T00:45:36;100118.42;;;21.50;52.80
60611;BME280;46439;51.164;13.572;2022-07-23T00:48:05;100115.30;;;21.48;52.82
60611;BME280;46439;51.164;13.572;2022-07-23T00:50:33;100119.02;;;21.45;52.94
60611;BME280;46439;51.164;13.572;2022-07-23T00:53:02;100116.55;;;21.42;52.98
60611;BME280;46439;51.164;13.572;2022-07-23T00:55:30;100112.07;;;21.40;53.06
60611;BME280;46439;51.164;13.572;2022-07-23T00:58:00;100109.55;;;21.38;53.14
60611;BME280;46439;51.164;13.572;2022-07-23T01:00:29;100109.16;;;21.35;53.21
60611;BME280;46439;51.164;13.572;2022-07-23T01:02:58;100105.65;;;21.29;53.24
60611;BME280;46439;51.164;13.572;2022-07-23T01:05:26;100105.98;;;21.23;53.27
60611;BME280;46439;51.164;13.572;2022-07-23T01:07:55;100107.84;;;21.23;53.38
60611;BME280;46439;51.164;13.572;2022-07-23T01:10:24;100105.09;;;21.20;53.46
60611;BME280;46439;51.164;13.572;2022-07-23T01:12:59;100103.55;;;21.13;53.55
60611;BME280;46439;51.164;13.572;2022-07-23T01:15:28;100102.70;;;21.07;53.44
60611;BME280;46439;51.164;13.572;2022-07-23T01:17:56;100091.42;;;21.00;53.54
60611;BME280;46439;51.164;13.572;2022-07-23T01:20:25;100083.41;;;20.95;53.55
60611;BME280;46439;51.164;13.572;2022-07-23T01:22:54;100083.05;;;20.92;53.71
60611;BME280;46439;51.164;13.572;2022-07-23T01:25:23;100082.48;;;20.91;53.80
60611;BME280;46439;51.164;13.572;2022-07-23T01:27:52;100078.50;;;20.88;53.87
60611;BME280;46439;51.164;13.572;2022-07-23T01:30:21;100063.85;;;20.88;54.00
60611;BME280;46439;51.164;13.572;2022-07-23T01:32:49;100056.65;;;20.87;54.11
60611;BME280;46439;51.164;13.572;2022-07-23T01:35:18;100047.10;;;20.87;54.21
60611;BME280;46439;51.164;13.572;2022-07-23T01:37:46;100047.40;;;20.89;54.37
60611;BME280;46439;51.164;13.572;2022-07-23T01:40:15;100040.43;;;20.91;54.48
60611;BME280;46439;51.164;13.572;2022-07-23T01:42:43;100029.48;;;20.92;54.55
60611;BME280;46439;51.164;13.572;2022-07-23T01:45:12;100021.27;;;20.88;54.59
60611;BME280;46439;51.164;13.572;2022-07-23T01:47:40;100009.31;;;20.79;54.52
60611;BME280;46439;51.164;13.572;2022-07-23T01:50:10;100007.94;;;20.70;54.46
60611;BME280;46439;51.164;13.572;2022-07-23T01:52:38;100004.90;;;20.64;54.47
60611;BME280;46439;51.164;13.572;2022-07-23T01:55:08;100008.28;;;20.59;54.56
60611;BME280;46439;51.164;13.572;2022-07-23T01:57:37;100015.89;;;20.47;54.43
60611;BME280;46439;51.164;13.572;2022-07-23T02:00:08;100013.33;;;20.41;54.49
60611;BME280;46439;51.164;13.572;2022-07-23T02:02:36;100011.72;;;20.37;54.64
60611;BME280;46439;51.164;13.572;2022-07-23T02:05:06;100006.76;;;20.37;54.85
60611;BME280;46439;51.164;13.572;2022-07-23T02:07:35;100007.39;;;20.36;54.90
60611;BME280;46439;51.164;13.572;2022-07-23T02:10:04;100009.61;;;20.39;55.18
60611;BME280;46439;51.164;13.572;2022-07-23T02:12:32;100012.21;;;20.40;55.26
60611;BME280;46439;51.164;13.572;2022-07-23T02:15:01;100007.98;;;20.36;55.30
60611;BME280;46439;51.164;13.572;2022-07-23T02:17:29;100006.17;;;20.34;55.41
60611;BME280;46439;51.164;13.572;2022-07-23T02:19:57;100003.41;;;20.35;55.50
60611;BME280;46439;51.164;13.572;2022-07-23T02:22:26;100006.67;;;20.34;55.65
60611;BME280;46439;51.164;13.572;2022-07-23T02:24:54;100009.92;;;20.32;55.59
60611;BME280;46439;51.164;13.572;2022-07-23T02:27:22;100008.75;;;20.31;55.69
60611;BME280;46439;51.164;13.572;2022-07-23T02:29:51;100013.78;;;20.31;55.84
60611;BME280;46439;51.164;13.572;2022-07-23T02:32:19;100023.89;;;20.29;55.87
60611;BME280;46439;51.164;13.572;2022-07-23T02:34:49;100023.08;;;20.27;55.87
60611;BME280;46439;51.164;13.572;2022-07-23T02:37:18;100016.09;;;20.31;56.06
60611;BME280;46439;51.164;13.572;2022-07-23T02:39:46;100004.61;;;20.34;56.20
60611;BME280;46439;51.164;13.572;2022-07-23T02:42:16;99987.04;;;20.31;56.22
60611;BME280;46439;51.164;13.572;2022-07-23T02:44:45;99972.02;;;20.24;56.12
60611;BME280;46439;51.164;13.572;2022-07-23T02:47:14;99966.35;;;20.22;56.17
60611;BME280;46439;51.164;13.572;2022-07-23T02:49:42;99963.98;;;20.19;56.20
60611;BME280;46439;51.164;13.572;2022-07-23T02:52:10;99967.05;;;20.14;56.16
60611;BME280;46439;51.164;13.572;2022-07-23T02:54:39;99974.02;;;20.14;56.28
60611;BME280;46439;51.164;13.572;2022-07-23T02:57:07;99978.55;;;20.13;56.40
60611;BME280;46439;51.164;13.572;2022-07-23T02:59:35;99982.79;;;20.14;56.52
60611;BME280;46439;51.164;13.572;2022-07-23T03:02:04;99983.19;;;20.17;56.73
60611;BME280;46439;51.164;13.572;2022-07-23T03:04:32;99986.55;;;20.19;56.89
60611;BME280;46439;51.164;13.572;2022-07-23T03:07:00;99983.16;;;20.21;56.97
60611;BME280;46439;51.164;13.572;2022-07-23T03:09:29;99983.14;;;20.23;56.96
60611;BME280;46439;51.164;13.572;2022-07-23T03:11:57;99989.34;;;20.24;57.11
60611;BME280;46439;51.164;13.572;2022-07-23T03:14:25;99991.65;;;20.24;57.12
60611;BME280;46439;51.164;13.572;2022-07-23T03:16:55;99992.92;;;20.19;57.13
60611;BME280;46439;51.164;13.572;2022-07-23T03:19:24;99989.98;;;20.12;57.04
60611;BME280;46439;51.164;13.572;2022-07-23T03:21:52;99990.91;;;20.02;56.94
60611;BME280;46439;51.164;13.572;2022-07-23T03:24:20;99994.98;;;19.93;57.02
60611;BME280;46439;51.164;13.572;2022-07-23T03:26:48;99994.77;;;19.83;56.92
60611;BME280;46439;51.164;13.572;2022-07-23T03:29:17;99989.49;;;19.78;56.97
60611;BME280;46439;51.164;13.572;2022-07-23T03:31:45;99982.13;;;19.77;57.15
60611;BME280;46439;51.164;13.572;2022-07-23T03:34:13;99977.30;;;19.76;57.26
60611;BME280;46439;51.164;13.572;2022-07-23T03:36:42;99974.20;;;19.75;57.33
60611;BME280;46439;51.164;13.572;2022-07-23T03:39:10;99977.64;;;19.73;57.29
60611;BME280;46439;51.164;13.572;2022-07-23T03:41:38;99977.75;;;19.75;57.52
60611;BME280;46439;51.164;13.572;2022-07-23T03:44:07;99980.16;;;19.77;57.63
60611;BME280;46439;51.164;13.572;2022-07-23T03:46:35;99983.65;;;19.76;57.77
60611;BME280;46439;51.164;13.572;2022-07-23T03:49:03;99983.21;;;19.78;57.84
60611;BME280;46439;51.164;13.572;2022-07-23T03:51:32;99979.23;;;19.82;58.01
60611;BME280;46439;51.164;13.572;2022-07-23T03:54:00;99975.36;;;19.86;58.05
60611;BME280;46439;51.164;13.572;2022-07-23T03:56:28;99981.39;;;19.85;58.19
60611;BME280;46439;51.164;13.572;2022-07-23T03:58:57;99990.14;;;19.85;58.22
60611;BME280;46439;51.164;13.572;2022-07-23T04:01:25;99990.70;;;19.81;58.15
60611;BME280;46439;51.164;13.572;2022-07-23T04:03:54;99993.91;;;19.77;58.16
60611;BME280;46439;51.164;13.572;2022-07-23T04:06:22;99990.61;;;19.74;58.18
60611;BME280;46439;51.164;13.572;2022-07-23T04:08:50;99993.41;;;19.69;58.16
60611;BME280;46439;51.164;13.572;2022-07-23T04:11:19;99988.60;;;19.65;58.17
60611;BME280;46439;51.164;13.572;2022-07-23T04:13:47;99995.48;;;19.59;58.18
60611;BME280;46439;51.164;13.572;2022-07-23T04:16:16;99996.58;;;19.56;58.21
60611;BME280;46439;51.164;13.572;2022-07-23T04:18:44;99998.51;;;19.55;58.40
60611;BME280;46439;51.164;13.572;2022-07-23T04:21:12;100010.66;;;19.53;58.44
60611;BME280;46439;51.164;13.572;2022-07-23T04:23:41;100029.91;;;19.49;58.49
60611;BME280;46439;51.164;13.572;2022-07-23T04:26:09;100042.29;;;19.47;58.49
60611;BME280;46439;51.164;13.572;2022-07-23T04:28:37;100029.80;;;19.47;58.63
60611;BME280;46439;51.164;13.572;2022-07-23T04:31:06;100009.49;;;19.40;58.50
60611;BME280;46439;51.164;13.572;2022-07-23T04:33:34;99995.45;;;19.33;58.54
60611;BME280;46439;51.164;13.572;2022-07-23T04:36:03;99989.11;;;19.32;58.54
60611;BME280;46439;51.164;13.572;2022-07-23T04:38:31;99978.04;;;19.32;58.66
60611;BME280;46439;51.164;13.572;2022-07-23T04:41:00;99974.01;;;19.34;58.85
60611;BME280;46439;51.164;13.572;2022-07-23T04:43:29;99966.72;;;19.34;58.95
60611;BME280;46439;51.164;13.572;2022-07-23T04:45:57;99961.58;;;19.36;59.05
60611;BME280;46439;51.164;13.572;2022-07-23T04:48:26;99960.44;;;19.39;59.10
60611;BME280;46439;51.164;13.572;2022-07-23T04:50:54;99956.61;;;19.46;59.40
60611;BME280;46439;51.164;13.572;2022-07-23T04:53:22;99957.22;;;19.46;59.44
60611;BME280;46439;51.164;13.572;2022-07-23T04:55:51;99959.34;;;19.50;59.49
60611;BME280;46439;51.164;13.572;2022-07-23T04:58:19;99955.43;;;19.53;59.69
60611;BME280;46439;51.164;13.572;2022-07-23T05:00:49;99962.03;;;19.50;59.64
60611;BME280;46439;51.164;13.572;2022-07-23T05:03:17;99976.56;;;19.47;59.46
60611;BME280;46439;51.164;13.572;2022-07-23T05:05:46;99999.98;;;19.48;59.63
60611;BME280;46439;51.164;13.572;2022-07-23T05:08:14;100014.73;;;19.49;59.68
60611;BME280;46439;51.164;13.572;2022-07-23T05:10:43;100018.34;;;19.50;59.82
60611;BME280;46439;51.164;13.572;2022-07-23T05:13:11;100008.57;;;19.52;59.99
60611;BME280;46439;51.164;13.572;2022-07-23T05:15:40;100003.89;;;19.53;60.01
60611;BME280;46439;51.164;13.572;2022-07-23T05:18:08;100003.96;;;19.54;60.08
60611;BME280;46439;51.164;13.572;2022-07-23T05:20:36;99996.91;;;19.54;60.17
60611;BME280;46439;51.164;13.572;2022-07-23T05:23:05;99995.58;;;19.54;60.07
60611;BME280;46439;51.164;13.572;2022-07-23T05:25:35;99994.48;;;19.56;60.21
60611;BME280;46439;51.164;13.572;2022-07-23T05:28:04;100004.44;;;19.60;60.32
60611;BME280;46439;51.164;13.572;2022-07-23T05:30:33;100017.35;;;19.66;60.48
60611;BME280;46439;51.164;13.572;2022-07-23T05:33:01;100031.79;;;19.70;60.51
60611;BME280;46439;51.164;13.572;2022-07-23T05:35:29;100055.79;;;19.71;60.66
60611;BME280;46439;51.164;13.572;2022-07-23T05:37:58;100085.09;;;19.70;60.62
60611;BME280;46439;51.164;13.572;2022-07-23T05:40:26;100090.30;;;19.68;60.70
60611;BME280;46439;51.164;13.572;2022-07-23T05:42:54;100073.09;;;19.64;60.66
60611;BME280;46439;51.164;13.572;2022-07-23T05:45:22;100069.52;;;19.63;60.67
60611;BME280;46439;51.164;13.572;2022-07-23T05:47:51;100075.16;;;19.61;60.76
60611;BME280;46439;51.164;13.572;2022-07-23T05:50:19;100077.54;;;19.57;60.76
60611;BME280;46439;51.164;13.572;2022-07-23T05:52:48;100072.89;;;19.50;60.59
60611;BME280;46439;51.164;13.572;2022-07-23T05:55:16;100073.56;;;19.47;60.69
60611;BME280;46439;51.164;13.572;2022-07-23T05:57:44;100081.82;;;19.45;60.71
60611;BME280;46439;51.164;13.572;2022-07-23T06:00:14;100089.11;;;19.41;60.79
60611;BME280;46439;51.164;13.572;2022-07-23T06:02:42;100083.52;;;19.38;60.77
60611;BME280;46439;51.164;13.572;2022-07-23T06:05:11;100089.48;;;19.42;60.96
60611;BME280;46439;51.164;13.572;2022-07-23T06:07:39;100089.29;;;19.44;61.08
60611;BME280;46439;51.164;13.572;2022-07-23T06:10:09;100084.92;;;19.40;61.05
60611;BME280;46439;51.164;13.572;2022-07-23T06:12:38;100081.73;;;19.39;61.06
60611;BME280;46439;51.164;13.572;2022-07-23T06:15:09;100075.30;;;19.35;61.00
60611;BME280;46439;51.164;13.572;2022-07-23T06:17:37;100081.45;;;19.33;61.04
60611;BME280;46439;51.164;13.572;2022-07-23T06:20:09;100085.58;;;19.29;61.07
60611;BME280;46439;51.164;13.572;2022-07-23T06:22:37;100091.93;;;19.30;61.14
60611;BME280;46439;51.164;13.572;2022-07-23T06:25:08;100099.98;;;19.32;61.23
60611;BME280;46439;51.164;13.572;2022-07-23T06:27:36;100112.23;;;19.35;61.33
60611;BME280;46439;51.164;13.572;2022-07-23T06:30:06;100117.84;;;19.38;61.55
60611;BME280;46439;51.164;13.572;2022-07-23T06:32:36;100120.55;;;19.46;61.67
60611;BME280;46439;51.164;13.572;2022-07-23T06:35:06;100125.75;;;19.56;61.81
60611;BME280;46439;51.164;13.572;2022-07-23T06:37:34;100120.67;;;19.67;62.03
60611;BME280;46439;51.164;13.572;2022-07-23T06:40:03;100115.83;;;19.80;62.30
60611;BME280;46439;51.164;13.572;2022-07-23T06:42:32;100107.22;;;19.87;62.24
60611;BME280;46439;51.164;13.572;2022-07-23T06:45:00;100092.25;;;19.91;62.30
60611;BME280;46439;51.164;13.572;2022-07-23T06:47:28;100060.69;;;19.93;62.21
60611;BME280;46439;51.164;13.572;2022-07-23T06:49:57;100070.30;;;19.99;62.34
60611;BME280;46439;51.164;13.572;2022-07-23T06:52:25;100103.39;;;20.01;62.41
60611;BME280;46439;51.164;13.572;2022-07-23T06:54:54;100094.22;;;20.07;62.48
60611;BME280;46439;51.164;13.572;2022-07-23T06:57:22;100070.64;;;20.13;62.56
60611;BME280;46439;51.164;13.572;2022-07-23T06:59:53;100062.83;;;20.20;62.52
60611;BME280;46439;51.164;13.572;2022-07-23T07:02:21;100059.81;;;20.29;62.60
60611;BME280;46439;51.164;13.572;2022-07-23T07:04:50;100058.08;;;20.43;62.84
60611;BME280;46439;51.164;13.572;2022-07-23T07:07:18;100061.40;;;20.60;63.13
60611;BME280;46439;51.164;13.572;2022-07-23T07:09:46;100075.13;;;20.70;63.15
60611;BME280;46439;51.164;13.572;2022-07-23T07:12:15;100076.55;;;20.72;63.06
60611;BME280;46439;51.164;13.572;2022-07-23T07:14:43;100076.42;;;20.82;63.15
60611;BME280;46439;51.164;13.572;2022-07-23T07:17:11;100084.34;;;20.94;63.26
60611;BME280;46439;51.164;13.572;2022-07-23T07:19:39;100086.13;;;21.04;63.33
60611;BME280;46439;51.164;13.572;2022-07-23T07:22:08;100081.75;;;21.17;63.48
60611;BME280;46439;51.164;13.572;2022-07-23T07:24:36;100089.42;;;21.27;63.52
60611;BME280;46439;51.164;13.572;2022-07-23T07:27:04;100086.42;;;21.40;63.62
60611;BME280;46439;51.164;13.572;2022-07-23T07:29:33;100092.30;;;21.55;63.87
60611;BME280;46439;51.164;13.572;2022-07-23T07:32:01;100081.08;;;21.63;63.88
60611;BME280;46439;51.164;13.572;2022-07-23T07:34:30;100072.11;;;21.69;63.73
60611;BME280;46439;51.164;13.572;2022-07-23T07:36:58;100078.65;;;21.80;63.81
60611;BME280;46439;51.164;13.572;2022-07-23T07:39:26;100088.14;;;21.92;63.93
60611;BME280;46439;51.164;13.572;2022-07-23T07:41:54;100087.00;;;22.07;64.05
60611;BME280;46439;51.164;13.572;2022-07-23T07:44:23;100083.02;;;22.20;64.09
60611;BME280;46439;51.164;13.572;2022-07-23T07:46:51;100073.71;;;22.37;64.31
60611;BME280;46439;51.164;13.572;2022-07-23T07:49:21;100071.31;;;22.55;64.39
60611;BME280;46439;51.164;13.572;2022-07-23T07:51:49;100062.53;;;22.60;64.21
60611;BME280;46439;51.164;13.572;2022-07-23T07:54:17;100049.88;;;22.60;64.02
60611;BME280;46439;51.164;13.572;2022-07-23T07:56:46;100059.30;;;22.66;64.07
60611;BME280;46439;51.164;13.572;2022-07-23T07:59:14;100059.91;;;22.77;64.14
60611;BME280;46439;51.164;13.572;2022-07-23T08:01:42;100052.92;;;22.92;64.38
60611;BME280;46439;51.164;13.572;2022-07-23T08:04:11;100053.29;;;22.99;64.41
60611;BME280;46439;51.164;13.572;2022-07-23T08:06:39;100052.42;;;23.04;64.36
60611;BME280;46439;51.164;13.572;2022-07-23T08:09:07;100056.66;;;23.13;64.31
60611;BME280;46439;51.164;13.572;2022-07-23T08:11:36;100059.96;;;23.17;64.19
60611;BME280;46439;51.164;13.572;2022-07-23T08:14:04;100058.08;;;23.17;64.03
60611;BME280;46439;51.164;13.572;2022-07-23T08:16:33;100061.48;;;23.22;64.08
60611;BME280;46439;51.164;13.572;2022-07-23T08:19:01;100058.64;;;23.35;64.28
60611;BME280;46439;51.164;13.572;2022-07-23T08:21:33;100065.44;;;23.49;64.38
60611;BME280;46439;51.164;13.572;2022-07-23T08:24:02;100060.88;;;23.56;64.29
60611;BME280;46439;51.164;13.572;2022-07-23T08:26:30;100053.86;;;23.61;64.07
60611;BME280;46439;51.164;13.572;2022-07-23T08:28:59;100046.84;;;23.72;64.29
60611;BME280;46439;51.164;13.572;2022-07-23T08:31:27;100042.16;;;23.86;64.35
60611;BME280;46439;51.164;13.572;2022-07-23T08:33:56;100048.02;;;24.02;64.51
60611;BME280;46439;51.164;13.572;2022-07-23T08:36:25;100047.31;;;24.14;64.69
60611;BME280;46439;51.164;13.572;2022-07-23T08:38:56;100048.16;;;24.25;64.66
60611;BME280;46439;51.164;13.572;2022-07-23T08:41:24;100053.52;;;24.27;64.51
60611;BME280;46439;51.164;13.572;2022-07-23T08:43:52;100045.05;;;24.30;64.20
60611;BME280;46439;51.164;13.572;2022-07-23T08:46:21;100051.31;;;24.28;64.03
60611;BME280;46439;51.164;13.572;2022-07-23T08:48:51;100061.48;;;24.23;63.79
60611;BME280;46439;51.164;13.572;2022-07-23T08:51:20;100067.39;;;24.31;64.00
60611;BME280;46439;51.164;13.572;2022-07-23T08:53:49;100064.90;;;24.39;63.95
60611;BME280;46439;51.164;13.572;2022-07-23T08:56:18;100063.06;;;24.47;63.88
60611;BME280;46439;51.164;13.572;2022-07-23T08:58:46;100069.91;;;24.48;63.79
60611;BME280;46439;51.164;13.572;2022-07-23T09:01:15;100071.08;;;24.48;63.70
60611;BME280;46439;51.164;13.572;2022-07-23T09:03:43;100072.89;;;24.47;63.76
60611;BME280;46439;51.164;13.572;2022-07-23T09:06:13;100078.08;;;24.49;63.59
60611;BME280;46439;51.164;13.572;2022-07-23T09:08:44;100080.92;;;24.51;63.44
60611;BME280;46439;51.164;13.572;2022-07-23T09:11:12;100088.38;;;24.60;63.49
60611;BME280;46439;51.164;13.572;2022-07-23T09:13:42;100089.58;;;24.68;63.46
60611;BME280;46439;51.164;13.572;2022-07-23T09:16:13;100094.63;;;24.75;63.72
60611;BME280;46439;51.164;13.572;2022-07-23T09:18:45;100092.08;;;24.82;63.62
60611;BME280;46439;51.164;13.572;2022-07-23T09:21:17;100088.17;;;24.78;63.28
60611;BME280;46439;51.164;13.572;2022-07-23T09:23:48;100084.99;;;24.81;63.10
60611;BME280;46439;51.164;13.572;2022-07-23T09:26:22;100084.52;;;24.89;63.17
60611;BME280;46439;51.164;13.572;2022-07-23T09:28:56;100074.60;;;24.95;63.31
60611;BME280;46439;51.164;13.572;2022-07-23T09:31:31;100078.09;;;24.99;63.27
60611;BME280;46439;51.164;13.572;2022-07-23T09:34:09;100080.52;;;25.02;63.21
60611;BME280;46439;51.164;13.572;2022-07-23T09:36:38;100082.52;;;24.99;63.06
60611;BME280;46439;51.164;13.572;2022-07-23T09:39:07;100094.08;;;25.05;63.14
60611;BME280;46439;51.164;13.572;2022-07-23T09:41:38;100102.33;;;25.13;63.18
60611;BME280;46439;51.164;13.572;2022-07-23T09:44:09;100105.05;;;25.20;63.23
60611;BME280;46439;51.164;13.572;2022-07-23T09:46:38;100107.92;;;25.20;63.05
60611;BME280;46439;51.164;13.572;2022-07-23T09:49:14;100111.95;;;25.20;63.24
60611;BME280;46439;51.164;13.572;2022-07-23T09:51:47;100112.84;;;25.22;62.96
60611;BME280;46439;51.164;13.572;2022-07-23T09:54:28;100119.11;;;25.24;62.92
60611;BME280;46439;51.164;13.572;2022-07-23T09:57:00;100121.52;;;25.27;62.99
60611;BME280;46439;51.164;13.572;2022-07-23T09:59:30;100121.30;;;25.31;62.85
60611;BME280;46439;51.164;13.572;2022-07-23T10:02:02;100126.45;;;25.32;62.84
60611;BME280;46439;51.164;13.572;2022-07-23T10:04:32;100130.59;;;25.33;62.77
60611;BME280;46439;51.164;13.572;2022-07-23T10:07:03;100136.23;;;25.37;62.85
60611;BME280;46439;51.164;13.572;2022-07-23T10:09:35;100139.41;;;25.43;62.85
60611;BME280;46439;51.164;13.572;2022-07-23T10:12:09;100139.14;;;25.45;62.79
60611;BME280;46439;51.164;13.572;2022-07-23T10:14:41;100137.27;;;25.51;62.65
60611;BME280;46439;51.164;13.572;2022-07-23T10:17:10;100132.86;;;25.60;62.94
60611;BME280;46439;51.164;13.572;2022-07-23T10:19:39;100135.73;;;25.63;62.76
60611;BME280;46439;51.164;13.572;2022-07-23T10:22:09;100132.41;;;25.68;62.61
60611;BME280;46439;51.164;13.572;2022-07-23T10:24:47;100142.38;;;25.80;62.70
60611;BME280;46439;51.164;13.572;2022-07-23T10:27:39;100148.26;;;25.91;62.79
60611;BME280;46439;51.164;13.572;2022-07-23T10:30:17;100149.45;;;25.99;62.70
60611;BME280;46439;51.164;13.572;2022-07-23T10:32:56;100150.16;;;26.06;62.67
60611;BME280;46439;51.164;13.572;2022-07-23T10:35:34;100148.17;;;26.09;62.59
60611;BME280;46439;51.164;13.572;2022-07-23T10:38:10;100145.95;;;26.08;62.34
60611;BME280;46439;51.164;13.572;2022-07-23T10:40:54;100153.27;;;26.14;62.31
60611;BME280;46439;51.164;13.572;2022-07-23T10:43:23;100152.59;;;26.21;62.27
60611;BME280;46439;51.164;13.572;2022-07-23T10:45:53;100154.40;;;26.29;62.33
60611;BME280;46439;51.164;13.572;2022-07-23T10:48:23;100161.48;;;26.34;62.23
60611;BME280;46439;51.164;13.572;2022-07-23T10:51:11;100168.91;;;26.32;62.10
60611;BME280;46439;51.164;13.572;2022-07-23T10:53:58;100174.05;;;26.32;61.98
60611;BME280;46439;51.164;13.572;2022-07-23T10:59:33;100182.52;;;26.30;61.74
60611;BME280;46439;51.164;13.572;2022-07-23T11:02:24;100187.40;;;26.18;61.38
60611;BME280;46439;51.164;13.572;2022-07-23T11:04:56;100192.33;;;26.09;61.31
60611;BME280;46439;51.164;13.572;2022-07-23T11:07:27;100186.73;;;25.99;61.06
60611;BME280;46439;51.164;13.572;2022-07-23T11:09:56;100179.16;;;25.83;61.00
60611;BME280;46439;51.164;13.572;2022-07-23T11:12:43;100181.24;;;25.67;60.66
60611;BME280;46439;51.164;13.572;2022-07-23T11:15:13;100180.89;;;25.57;60.58
60611;BME280;46439;51.164;13.572;2022-07-23T11:18:00;100177.51;;;25.52;60.91
60611;BME280;46439;51.164;13.572;2022-07-23T11:20:29;100182.97;;;25.47;60.68
60611;BME280;46439;51.164;13.572;2022-07-23T11:22:58;100185.61;;;25.39;60.81
60611;BME280;46439;51.164;13.572;2022-07-23T11:25:35;100186.23;;;25.29;60.59
60611;BME280;46439;51.164;13.572;2022-07-23T11:28:13;100191.08;;;25.17;60.53
60611;BME280;46439;51.164;13.572;2022-07-23T11:30:44;100198.48;;;25.07;60.33
60611;BME280;46439;51.164;13.572;2022-07-23T11:33:21;100197.45;;;25.00;60.47
60611;BME280;46439;51.164;13.572;2022-07-23T11:35:59;100197.23;;;24.89;60.22
60611;BME280;46439;51.164;13.572;2022-07-23T11:38:29;100197.31;;;24.82;60.29
60611;BME280;46439;51.164;13.572;2022-07-23T11:40:58;100196.59;;;24.73;60.45
60611;BME280;46439;51.164;13.572;2022-07-23T11:43:27;100200.04;;;24.66;60.26
60611;BME280;46439;51.164;13.572;2022-07-23T11:45:59;100204.17;;;24.57;60.21
60611;BME280;46439;51.164;13.572;2022-07-23T11:48:29;100202.71;;;24.43;60.02
60611;BME280;46439;51.164;13.572;2022-07-23T11:50:59;100206.50;;;24.32;60.17
60611;BME280;46439;51.164;13.572;2022-07-23T11:53:29;100201.93;;;24.26;60.12
60611;BME280;46439;51.164;13.572;2022-07-23T11:56:06;100214.92;;;24.17;60.13
60611;BME280;46439;51.164;13.572;2022-07-23T11:58:35;100218.72;;;24.04;60.20
60611;BME280;46439;51.164;13.572;2022-07-23T12:01:04;100215.19;;;23.97;60.15
60611;BME280;46439;51.164;13.572;2022-07-23T12:03:33;100209.78;;;23.85;59.99
60611;BME280;46439;51.164;13.572;2022-07-23T12:06:02;100208.36;;;23.77;60.09
60611;BME280;46439;51.164;13.572;2022-07-23T12:08:30;100202.31;;;23.69;60.03
60611;BME280;46439;51.164;13.572;2022-07-23T12:10:58;100201.02;;;23.66;60.32
60611;BME280;46439;51.164;13.572;2022-07-23T12:13:27;100198.29;;;23.58;60.17
60611;BME280;46439;51.164;13.572;2022-07-23T12:15:58;100202.61;;;23.50;60.34
60611;BME280;46439;51.164;13.572;2022-07-23T12:18:27;100198.33;;;23.47;60.25
60611;BME280;46439;51.164;13.572;2022-07-23T12:20:57;100203.84;;;23.43;60.45
60611;BME280;46439;51.164;13.572;2022-07-23T12:23:30;100209.29;;;23.42;60.60
60611;BME280;46439;51.164;13.572;2022-07-23T12:26:02;100200.96;;;23.46;60.71
60611;BME280;46439;51.164;13.572;2022-07-23T12:28:32;100201.93;;;23.54;60.70
60611;BME280;46439;51.164;13.572;2022-07-23T12:31:01;100198.41;;;23.60;61.04
60611;BME280;46439;51.164;13.572;2022-07-23T12:33:31;100200.38;;;23.69;61.20
60611;BME280;46439;51.164;13.572;2022-07-23T12:36:01;100198.78;;;23.78;61.27
60611;BME280;46439;51.164;13.572;2022-07-23T12:38:39;100202.14;;;23.94;61.71
60611;BME280;46439;51.164;13.572;2022-07-23T12:41:08;100201.71;;;24.00;61.55
60611;BME280;46439;51.164;13.572;2022-07-23T12:43:39;100202.50;;;24.11;61.60
60611;BME280;46439;51.164;13.572;2022-07-23T12:46:10;100201.09;;;24.25;61.87
60611;BME280;46439;51.164;13.572;2022-07-23T12:48:39;100201.63;;;24.36;62.10
60611;BME280;46439;51.164;13.572;2022-07-23T12:51:18;100201.16;;;24.42;61.96
60611;BME280;46439;51.164;13.572;2022-07-23T12:53:48;100196.05;;;24.51;62.03
60611;BME280;46439;51.164;13.572;2022-07-23T12:56:19;100197.32;;;24.57;62.14
60611;BME280;46439;51.164;13.572;2022-07-23T12:58:51;100193.80;;;24.65;62.21